Leonville, Louisiana
Current Conditions -  °F | °C
As of 5:35 PM on Tuesday 25 Nov 2014 (Local Time) from KOPL Reporting Station
Clear Clear  
Wind Chill: 47°   Ceiling: Unl
Heat Index: 47°   Visibility: 10mi
Dew Point: 33°   Wind: 0mph
Humidity: 59%   Direction: NA
Pressure: 30.22"   Gusts: NA
Location:  30.47°N, 91.98°W
Report Text: KOPL 252335Z AUTO 00000KT 10SM CLR 08/01 A3022 RMK AO2 T00820005
Loading
Personal Weather Stations






























Interactive Weather Map New forecast layout! Learn more

10-Day Weather Forecast

Advertisements
Track Severe Weather on mobile